createdAt,value
2023-03-29T04:24:42.319Z,7.34
2023-03-29T04:25:45.194Z,7.32
2023-03-29T04:26:42.851Z,7.32
2023-03-29T04:27:43.118Z,7.34
2023-03-29T04:28:43.397Z,7.34
2023-03-29T04:29:43.688Z,7.34
2023-03-29T04:30:43.987Z,7.35
2023-03-29T04:31:44.348Z,7.35
2023-03-29T04:32:44.669Z,7.37
2023-03-29T04:33:44.860Z,7.37
2023-03-29T04:34:45.106Z,7.38
2023-03-29T04:35:45.395Z,7.40
2023-03-29T04:36:45.673Z,7.38
2023-03-29T04:37:45.957Z,7.40
2023-03-29T04:38:47.685Z,7.41
2023-03-29T04:39:46.542Z,7.41
2023-03-29T04:40:46.918Z,7.42
2023-03-29T04:41:47.073Z,7.42
2023-03-29T04:42:47.363Z,7.45
2023-03-29T04:43:47.650Z,7.44
2023-03-29T04:44:48.093Z,7.45
2023-03-29T04:45:48.189Z,7.47
2023-03-29T04:46:48.543Z,7.47
2023-03-29T04:47:48.875Z,7.47
2023-03-29T04:48:49.093Z,7.49
2023-03-29T04:49:49.371Z,7.49
2023-03-29T04:50:49.674Z,7.50
2023-03-29T04:51:50.000Z,7.52
2023-03-29T04:52:50.281Z,7.55
2023-03-29T04:53:50.713Z,7.55
2023-03-29T04:54:50.840Z,7.55
2023-03-29T04:55:51.120Z,7.56
2023-03-29T04:56:51.421Z,7.55
2023-03-29T04:57:51.728Z,7.56
2023-03-29T04:59:00.687Z,7.58
2023-03-29T04:59:52.355Z,7.59
2023-03-29T05:00:52.724Z,7.59
2023-03-29T05:01:53.032Z,7.59
2023-03-29T05:02:53.243Z,7.60
2023-03-29T05:03:53.503Z,7.62
2023-03-29T05:04:53.855Z,7.63
2023-03-29T05:05:54.312Z,7.66
2023-03-29T05:06:54.558Z,7.69
2023-03-29T05:07:54.730Z,7.67
2023-03-29T05:08:55.015Z,7.69
2023-03-29T05:09:55.302Z,7.71
2023-03-29T05:10:55.655Z,7.72
2023-03-29T05:11:55.944Z,7.71
2023-03-29T05:12:56.252Z,7.74
2023-03-29T05:14:03.557Z,7.74
2023-03-29T05:14:56.772Z,7.72
2023-03-29T05:15:57.191Z,7.72
2023-03-29T05:16:57.332Z,7.72
2023-03-29T05:17:57.840Z,7.74
2023-03-29T05:18:58.267Z,7.74
2023-03-29T05:19:58.161Z,7.71
2023-03-29T05:20:58.410Z,7.72
2023-03-29T05:21:58.685Z,7.74
2023-03-29T05:22:58.960Z,7.72
2023-03-29T05:23:59.264Z,7.74
2023-03-29T05:24:59.518Z,7.74
2023-03-29T05:25:59.796Z,7.77
2023-03-29T05:27:00.082Z,7.77
2023-03-29T05:28:00.349Z,7.75
2023-03-29T05:29:09.277Z,7.75
2023-03-29T05:30:00.994Z,7.78
2023-03-29T05:31:01.678Z,7.79
2023-03-29T05:32:01.569Z,7.81
2023-03-29T05:33:01.909Z,7.81
2023-03-29T05:34:02.200Z,7.81
2023-03-29T05:35:02.512Z,7.82
2023-03-29T05:36:02.874Z,7.84
2023-03-29T05:37:03.172Z,7.84
2023-03-29T05:38:03.412Z,7.84
2023-03-29T05:39:03.734Z,7.87
2023-03-29T05:40:05.989Z,7.89
2023-03-29T05:41:04.471Z,7.87
2023-03-29T05:42:04.653Z,7.90
2023-03-29T05:43:04.974Z,7.90
2023-03-29T05:44:05.297Z,7.90
2023-03-29T05:45:05.587Z,7.90
2023-03-29T05:46:05.962Z,7.92
2023-03-29T05:47:06.227Z,7.93
2023-03-29T05:48:06.552Z,7.93
2023-03-29T05:49:06.864Z,7.93
2023-03-29T05:50:07.156Z,7.94
2023-03-29T05:51:07.486Z,7.94
2023-03-29T05:52:07.765Z,7.97
2023-03-29T05:53:08.049Z,8.00
2023-03-29T05:54:08.388Z,7.99
2023-03-29T05:55:08.700Z,8.00
2023-03-29T05:56:09.019Z,8.00
2023-03-29T05:57:09.370Z,8.02
2023-03-29T05:58:09.586Z,8.03
2023-03-29T05:59:09.900Z,8.03
2023-03-29T06:00:10.221Z,8.03
2023-03-29T06:01:10.486Z,8.04
2023-03-29T06:02:10.920Z,8.07
2023-03-29T06:03:19.972Z,8.08
2023-03-29T06:04:12.396Z,8.12
2023-03-29T06:05:11.588Z,8.12
2023-03-29T06:06:11.882Z,8.14
2023-03-29T06:07:12.202Z,8.14
2023-03-29T06:08:12.496Z,8.14
2023-03-29T06:09:12.803Z,8.17
2023-03-29T06:10:13.103Z,8.20
2023-03-29T06:11:13.462Z,8.21
2023-03-29T06:12:13.727Z,8.21
2023-03-29T06:13:14.032Z,8.22
2023-03-29T06:14:14.344Z,8.25
2023-03-29T06:15:14.645Z,8.26
2023-03-29T06:16:14.930Z,8.29
2023-03-29T06:17:15.391Z,8.32
2023-03-29T06:18:15.577Z,8.32
2023-03-29T06:19:15.890Z,8.35
2023-03-29T06:20:16.163Z,8.35
2023-03-29T06:21:17.332Z,8.36
2023-03-29T06:22:16.811Z,8.37
2023-03-29T06:23:17.108Z,8.39
2023-03-29T06:24:17.484Z,8.37
2023-03-29T06:25:17.694Z,8.39
2023-03-29T06:26:17.982Z,8.37
2023-03-29T06:27:18.276Z,8.36
2023-03-29T06:28:18.589Z,8.39
2023-03-29T06:29:18.869Z,8.42
2023-03-29T06:30:19.193Z,8.44
2023-03-29T06:31:19.557Z,8.45
2023-03-29T06:32:19.827Z,8.47
2023-03-29T06:33:20.227Z,8.50
2023-03-29T06:34:20.464Z,8.48
2023-03-29T06:35:20.761Z,8.50
2023-03-29T06:36:21.078Z,8.54
2023-03-29T06:37:21.435Z,8.54
2023-03-29T06:38:21.734Z,8.54
2023-03-29T06:39:22.004Z,8.58
2023-03-29T06:40:22.356Z,8.58
2023-03-29T06:41:22.654Z,8.60
2023-03-29T06:42:23.012Z,8.63
2023-03-29T06:43:23.306Z,8.66
2023-03-29T06:44:23.649Z,8.68
2023-03-29T06:45:24.761Z,8.69
2023-03-29T06:46:24.283Z,8.72
2023-03-29T06:47:24.599Z,8.72
2023-03-29T06:48:24.902Z,8.78
2023-03-29T06:49:25.228Z,8.84
2023-03-29T06:50:25.548Z,8.88
2023-03-29T06:51:25.861Z,8.90
2023-03-29T06:52:26.205Z,8.94
2023-03-29T06:53:26.495Z,8.97
2023-03-29T06:54:26.816Z,9.02
2023-03-29T06:55:27.160Z,9.04
2023-03-29T06:56:27.337Z,9.05
2023-03-29T06:57:27.816Z,9.12
2023-03-29T06:58:27.994Z,9.18
2023-03-29T06:59:28.404Z,9.24
2023-03-29T07:00:28.677Z,9.28
2023-03-29T07:01:29.173Z,9.31
2023-03-29T07:02:29.369Z,9.34
2023-03-29T07:03:29.608Z,9.31
2023-03-29T07:04:30.043Z,9.31
2023-03-29T07:05:30.224Z,9.32
2023-03-29T07:06:30.504Z,9.32
2023-03-29T07:07:30.855Z,9.34
2023-03-29T07:08:31.555Z,9.31
2023-03-29T07:09:31.418Z,9.30
2023-03-29T07:10:31.784Z,9.30
2023-03-29T07:11:32.033Z,9.31
2023-03-29T07:12:32.381Z,9.34
2023-03-29T07:13:32.749Z,9.31
2023-03-29T07:14:34.013Z,9.31
2023-03-29T07:15:33.345Z,9.32
2023-03-29T07:16:33.751Z,9.28
2023-03-29T07:17:33.868Z,9.28
2023-03-29T07:18:34.183Z,9.27
2023-03-29T07:19:34.482Z,9.24
2023-03-29T07:20:34.832Z,9.18
2023-03-29T07:21:36.661Z,9.18
2023-03-29T07:22:35.408Z,9.18
2023-03-29T07:23:35.742Z,9.20
2023-03-29T07:24:36.009Z,9.20
2023-03-29T07:25:36.356Z,9.24
2023-03-29T07:26:36.679Z,9.30
2023-03-29T07:27:37.029Z,9.31
2023-03-29T07:28:37.369Z,9.39
2023-03-29T07:29:37.637Z,9.40
2023-03-29T07:30:37.909Z,9.46
2023-03-29T07:31:38.241Z,9.53
2023-03-29T07:32:38.655Z,9.63
2023-03-29T07:33:38.943Z,9.71
2023-03-29T07:34:39.088Z,9.78
2023-03-29T07:35:39.541Z,9.82
2023-03-29T07:36:39.730Z,9.89
2023-03-29T07:37:40.046Z,9.97
2023-03-29T07:38:40.326Z,10.03
2023-03-29T07:39:40.691Z,10.10
2023-03-29T07:40:40.992Z,10.17
2023-03-29T07:41:41.357Z,10.22
2023-03-29T07:42:41.534Z,10.26
2023-03-29T07:43:41.880Z,10.32
2023-03-29T07:44:42.206Z,10.37
2023-03-29T07:45:42.574Z,10.53
2023-03-29T07:46:42.900Z,10.70
2023-03-29T07:47:43.149Z,10.83
2023-03-29T07:48:43.482Z,10.91
2023-03-29T07:49:43.803Z,4.53
2023-03-29T07:50:44.084Z,4.47
2023-03-29T07:51:44.441Z,4.63
2023-03-29T07:52:44.803Z,4.79
2023-03-29T07:53:45.085Z,5.13
2023-03-29T07:54:45.465Z,5.12
2023-03-29T07:55:46.997Z,5.12
2023-03-29T07:56:46.100Z,5.44
2023-03-29T07:57:46.473Z,5.53
2023-03-29T07:58:46.857Z,5.62
2023-03-29T07:59:47.010Z,5.68
2023-03-29T08:00:47.375Z,11.56
2023-03-29T08:01:47.719Z,11.57
2023-03-29T08:02:48.018Z,11.60
2023-03-29T08:03:48.341Z,11.58
2023-03-29T08:04:48.470Z,5.74
2023-03-29T08:05:48.690Z,5.76
2023-03-29T08:06:48.920Z,11.56
2023-03-29T08:07:49.258Z,11.74
2023-03-29T08:08:49.654Z,11.58
2023-03-29T08:09:49.754Z,12.01
2023-03-29T08:10:50.096Z,11.97
2023-03-29T08:11:50.298Z,11.57
2023-03-29T08:12:50.649Z,11.57
2023-03-29T08:13:51.046Z,11.56
2023-03-29T08:14:51.330Z,11.57
2023-03-29T08:15:51.532Z,11.72
2023-03-29T08:16:51.912Z,11.77
2023-03-29T08:17:52.218Z,11.58
2023-03-29T08:18:52.620Z,11.93
2023-03-29T08:19:52.924Z,12.06
2023-03-29T08:20:53.174Z,12.18
2023-03-29T08:22:00.498Z,12.21
2023-03-29T08:22:54.121Z,12.37
2023-03-29T08:23:54.058Z,12.38
2023-03-29T08:24:54.402Z,12.23
2023-03-29T08:25:54.752Z,12.24
2023-03-29T08:26:55.080Z,12.37
2023-03-29T08:27:55.364Z,12.21
2023-03-29T08:28:55.711Z,12.22
2023-03-29T08:29:56.012Z,12.33
2023-03-29T08:30:56.392Z,12.21
2023-03-29T08:31:56.684Z,12.53
2023-03-29T08:32:57.239Z,12.54
2023-03-29T08:33:57.340Z,12.66
2023-03-29T08:34:57.637Z,11.56
2023-03-29T08:36:05.014Z,12.55
2023-03-29T08:36:58.214Z,11.56
2023-03-29T08:37:58.530Z,12.32
2023-03-29T08:38:58.880Z,12.05
2023-03-29T08:39:59.051Z,11.64
2023-03-29T08:40:59.422Z,11.58
2023-03-29T08:41:59.586Z,11.57
2023-03-29T08:42:59.913Z,11.57
2023-03-29T08:44:00.211Z,11.57
2023-03-29T08:45:00.527Z,11.72
2023-03-29T08:46:00.883Z,11.72
2023-03-29T08:47:01.233Z,11.76
2023-03-29T08:48:01.586Z,11.72
2023-03-29T08:49:01.717Z,11.67
2023-03-29T08:50:02.024Z,11.60
2023-03-29T08:51:02.612Z,11.57
2023-03-29T08:52:02.653Z,12.26
2023-03-29T08:53:02.936Z,12.21
2023-03-29T08:54:03.236Z,12.25
2023-03-29T08:55:03.530Z,12.25
2023-03-29T08:56:03.834Z,12.29
2023-03-29T08:57:04.258Z,12.34
2023-03-29T08:58:04.489Z,12.21
2023-03-29T08:59:18.722Z,12.23
2023-03-29T09:00:05.150Z,12.22
2023-03-29T09:01:05.613Z,12.30
2023-03-29T09:02:05.706Z,12.29
2023-03-29T09:03:06.074Z,12.21
2023-03-29T09:04:06.294Z,12.23
2023-03-29T09:05:06.633Z,12.23
2023-03-29T09:06:06.848Z,12.22
2023-03-29T09:07:07.204Z,12.29
2023-03-29T09:08:07.482Z,12.54
2023-03-29T09:09:07.813Z,12.57
2023-03-29T09:10:08.140Z,12.61
2023-03-29T09:11:08.388Z,11.60
2023-03-29T09:12:08.680Z,11.64
2023-03-29T09:13:09.214Z,11.77
2023-03-29T09:14:09.398Z,11.59
2023-03-29T09:15:09.808Z,11.58
2023-03-29T09:16:10.114Z,11.57
2023-03-29T09:17:14.482Z,11.56
2023-03-29T09:18:10.671Z,11.57
2023-03-29T09:19:10.946Z,11.74
2023-03-29T09:20:11.284Z,11.89
2023-03-29T09:21:11.472Z,11.88
2023-03-29T09:22:11.859Z,11.88
2023-03-29T09:23:12.154Z,11.93
2023-03-29T09:24:12.409Z,11.96
2023-03-29T09:25:12.709Z,11.56
2023-03-29T09:26:12.950Z,11.56
2023-03-29T09:27:13.195Z,11.66
2023-03-29T09:28:13.527Z,11.56
2023-03-29T09:29:13.787Z,13.41
